Time;durP1;ratioP1;P1;durP2;ratioP2;P2;SDS_P1;SDS_P2;PMS_P1;PMS_P2;Temp;Humidity;BMP_temperature;BMP_pressure;BME280_temperature;BME280_humidity;BME280_pressure;Samples;Min_cycle;Max_cycle;Signal;HPM_P1;HPM_P2
2024/01/13 00:01:10;;;;;;;7.65;4.82;;;11.50;78.00;;;;;;6192500;23;20009;-78
2024/01/13 00:03:37;;;;;;;7.57;4.78;;;11.50;78.00;;;;;;6193579;23;20054;-78
2024/01/13 00:06:03;;;;;;;7.47;4.70;;;11.90;78.20;;;;;;6165774;23;20005;-78
2024/01/13 00:08:28;;;;;;;7.53;4.90;;;11.50;78.00;;;;;;6167178;23;20004;-78
2024/01/13 00:11:00;;;;;;;6.90;4.43;;;11.50;78.00;;;;;;6168015;23;20009;-80
2024/01/13 00:13:25;;;;;;;6.80;4.35;;;11.50;78.00;;;;;;6167636;23;20084;-78
2024/01/13 00:15:51;;;;;;;8.07;4.60;;;11.60;78.10;;;;;;6164529;23;20008;-78
2024/01/13 00:18:19;;;;;;;6.50;4.15;;;11.60;78.10;;;;;;6165945;23;20009;-78
2024/01/13 00:20:47;;;;;;;7.57;4.75;;;11.60;78.10;;;;;;6141924;23;20083;-78
2024/01/13 00:23:13;;;;;;;7.82;4.68;;;11.60;78.10;;;;;;6191598;23;20009;-78
2024/01/13 00:25:39;;;;;;;6.88;4.63;;;11.50;78.10;;;;;;6191818;23;20080;-78
2024/01/13 00:28:06;;;;;;;6.22;4.00;;;11.50;78.20;;;;;;6192968;23;20013;-78
2024/01/13 00:30:32;;;;;;;6.40;4.20;;;11.50;78.10;;;;;;6192895;23;20012;-78
2024/01/13 00:32:58;;;;;;;6.53;4.13;;;11.50;78.10;;;;;;6167662;23;20001;-78
2024/01/13 00:35:24;;;;;;;6.88;4.40;;;12.40;78.70;;;;;;6167473;23;20004;-78
2024/01/13 00:38:10;;;;;;;6.75;4.50;;;11.50;78.30;;;;;;6202991;23;20064;-78
2024/01/13 00:40:44;;;;;;;7.50;4.43;;;11.50;78.20;;;;;;6152146;23;20016;-78
2024/01/13 00:43:16;;;;;;;6.70;4.28;;;11.50;78.20;;;;;;6198803;23;20019;-80
2024/01/13 00:45:44;;;;;;;;;;;11.50;78.20;;;;;;6176055;23;20005;-78
2024/01/13 00:48:10;;;;;;;6.88;4.03;;;11.50;78.20;;;;;;6174483;23;19976;-78
2024/01/13 00:50:36;;;;;;;6.75;4.00;;;11.60;78.20;;;;;;6173534;23;20005;-78
2024/01/13 00:53:22;;;;;;;7.05;4.47;;;11.50;78.20;;;;;;6198483;23;19998;-79
2024/01/13 00:55:52;;;;;;;6.70;4.20;;;11.40;78.30;;;;;;6179836;23;20056;-79
2024/01/13 00:58:19;;;;;;;6.43;4.00;;;11.50;78.30;;;;;;6176305;23;20059;-80
2024/01/13 01:01:10;;;;;;;7.20;4.38;;;11.50;78.30;;;;;;6174970;23;20024;-79
2024/01/13 01:03:35;;;;;;;6.95;4.50;;;11.50;78.40;;;;;;6175009;23;20021;-78
2024/01/13 01:06:01;;;;;;;6.65;4.18;;;11.50;78.30;;;;;;6172200;23;20012;-78
2024/01/13 01:08:27;;;;;;;7.55;4.30;;;11.70;78.40;;;;;;6199955;23;20001;-78
2024/01/13 01:10:55;;;;;;;6.72;4.20;;;11.60;78.40;;;;;;6197974;23;20005;-78
2024/01/13 01:13:21;;;;;;;6.85;4.22;;;11.40;78.20;;;;;;6171644;23;20029;-78
2024/01/13 01:15:49;;;;;;;6.68;4.32;;;11.50;78.30;;;;;;6172093;23;20008;-79
2024/01/13 01:18:15;;;;;;;7.95;4.30;;;11.40;78.10;;;;;;6149381;23;20005;-79
2024/01/13 01:20:46;;;;;;;6.13;3.90;;;11.50;78.30;;;;;;6171917;23;20032;-78
2024/01/13 01:23:13;;;;;;;6.60;3.90;;;11.40;78.30;;;;;;6197568;23;20005;-79
2024/01/13 01:25:39;;;;;;;7.25;4.53;;;11.40;78.30;;;;;;6165796;23;20477;-79
2024/01/13 01:28:06;;;;;;;6.00;3.80;;;11.40;78.30;;;;;;6140477;23;20006;-79
2024/01/13 01:30:33;;;;;;;6.75;3.83;;;11.40;78.40;;;;;;6136954;23;20014;-79
2024/01/13 01:32:59;;;;;;;6.30;3.80;;;11.50;78.30;;;;;;6167327;23;20534;-79
2024/01/13 01:35:29;;;;;;;5.93;3.63;;;11.50;78.40;;;;;;6167081;23;20002;-80
2024/01/13 01:37:55;;;;;;;6.55;4.28;;;11.40;78.20;;;;;;6186972;23;20021;-80
2024/01/13 01:40:30;;;;;;;6.20;3.78;;;11.40;78.40;;;;;;6198987;23;20056;-79
2024/01/13 01:43:00;;;;;;;6.30;4.00;;;11.40;78.40;;;;;;6173695;23;20005;-79
2024/01/13 01:45:30;;;;;;;6.22;4.03;;;11.30;78.30;;;;;;6200213;23;20013;-80
2024/01/13 01:48:07;;;;;;;6.20;3.70;;;11.40;78.40;;;;;;6146722;23;20089;-79
2024/01/13 01:50:39;;;;;;;6.60;4.10;;;11.40;78.50;;;;;;6173273;23;20016;-79
2024/01/13 01:53:06;;;;;;;7.05;4.20;;;11.40;78.50;;;;;;6200604;23;20043;-80
2024/01/13 01:55:36;;;;;;;6.10;3.80;;;11.40;78.30;;;;;;6179298;23;20001;-79
2024/01/13 01:58:03;;;;;;;6.57;4.13;;;11.40;78.40;;;;;;6178904;23;20001;-79
2024/01/13 02:00:32;;;;;;;6.30;3.75;;;11.40;78.40;;;;;;6207070;23;20001;-79
2024/01/13 02:02:59;;;;;;;6.40;3.95;;;11.30;78.40;;;;;;6182013;23;20009;-79
2024/01/13 02:05:27;;;;;;;6.65;4.15;;;11.30;78.40;;;;;;6176961;23;20004;-79
2024/01/13 02:08:03;;;;;;;6.25;3.55;;;11.40;78.50;;;;;;6207586;23;20005;-79
2024/01/13 02:10:33;;;;;;;6.00;3.80;;;11.30;78.40;;;;;;6208665;23;20001;-79
2024/01/13 02:13:05;;;;;;;6.28;3.78;;;11.50;78.50;;;;;;6157250;23;20053;-79
2024/01/13 02:15:32;;;;;;;5.93;3.60;;;11.40;78.40;;;;;;6159428;23;20542;-79
2024/01/13 02:17:59;;;;;;;5.72;3.55;;;11.80;78.70;;;;;;6180812;23;20001;-79
2024/01/13 02:20:26;;;;;;;6.07;3.65;;;11.40;78.50;;;;;;6182932;23;20352;-79
2024/01/13 02:22:53;;;;;;;5.20;3.55;;;11.50;78.60;;;;;;6203097;23;20029;-79
2024/01/13 02:25:29;;;;;;;6.18;3.80;;;11.40;78.50;;;;;;6181666;23;20001;-79
2024/01/13 02:28:02;;;;;;;5.72;3.42;;;11.40;78.50;;;;;;6179133;23;20001;-80
2024/01/13 02:30:28;;;;;;;5.80;3.60;;;11.40;78.60;;;;;;6120593;23;20002;-79
2024/01/13 02:33:07;;;;;;;5.55;3.40;;;11.40;78.50;;;;;;6144612;23;19986;-78
2024/01/13 02:36:19;;;;;;;5.75;3.55;;;11.30;78.50;;;;;;6116105;23;19998;-79
2024/01/13 02:38:45;;;;;;;5.47;3.35;;;11.40;78.60;;;;;;6114426;23;20006;-79
2024/01/13 02:41:20;;;;;;;6.55;3.55;;;11.40;78.60;;;;;;6091617;23;20010;-79
2024/01/13 02:43:52;;;;;;;5.72;3.22;;;11.40;78.70;;;;;;6134449;23;20009;-79
2024/01/13 02:46:19;;;;;;;5.15;3.03;;;11.10;78.40;;;;;;6151772;23;20013;-78
2024/01/13 02:48:53;;;;;;;5.80;3.45;;;11.40;78.70;;;;;;6174295;23;20005;-78
2024/01/13 02:51:20;;;;;;;5.82;3.45;;;11.40;78.70;;;;;;6202404;23;20017;-79
2024/01/13 02:53:46;;;;;;;5.38;3.15;;;11.30;78.60;;;;;;6172063;23;19985;-79
2024/01/13 02:56:15;;;;;;;5.57;3.33;;;11.40;78.60;;;;;;6175954;23;20005;-79
2024/01/13 02:58:46;;;;;;;6.43;3.95;;;11.40;78.60;;;;;;6202573;23;19997;-79
2024/01/13 03:01:13;;;;;;;5.65;3.40;;;11.40;78.60;;;;;;6203580;23;20001;-79
2024/01/13 03:03:39;;;;;;;5.65;3.17;;;11.30;78.70;;;;;;6124850;23;20085;-79
2024/01/13 03:06:06;;;;;;;6.28;3.58;;;11.30;78.70;;;;;;6169621;23;20005;-79
2024/01/13 03:08:33;;;;;;;5.68;3.33;;;10.90;78.50;;;;;;6172812;23;20005;-79
2024/01/13 03:11:03;;;;;;;6.03;3.55;;;11.30;78.70;;;;;;6175643;23;20013;-79
2024/01/13 03:13:32;;;;;;;5.32;3.28;;;11.20;78.80;;;;;;6152002;23;20035;-79
2024/01/13 03:16:01;;;;;;;5.60;3.50;;;11.30;78.70;;;;;;6174766;23;20001;-79
2024/01/13 03:18:30;;;;;;;5.97;3.28;;;11.30;78.80;;;;;;6177237;23;20001;-80
2024/01/13 03:21:06;;;;;;;5.03;2.92;;;11.30;78.80;;;;;;6167646;23;20004;-78
2024/01/13 03:23:35;;;;;;;5.32;3.10;;;11.30;78.80;;;;;;6196635;23;20005;-78
2024/01/13 03:26:01;;;;;;;5.63;3.47;;;11.90;79.10;;;;;;6196199;23;20337;-79
2024/01/13 03:28:32;;;;;;;5.20;3.08;;;11.30;78.80;;;;;;6173210;23;20426;-79
2024/01/13 03:30:59;;;;;;;4.88;2.92;;;11.20;78.70;;;;;;6174001;23;20448;-79
2024/01/13 03:33:29;;;;;;;5.55;3.42;;;11.20;78.70;;;;;;6204242;23;20002;-78
2024/01/13 03:35:55;;;;;;;5.20;2.97;;;11.30;78.80;;;;;;6201607;23;20053;-79
2024/01/13 03:38:22;;;;;;;5.30;3.03;;;11.40;78.90;;;;;;6175742;23;20028;-78
2024/01/13 03:40:49;;;;;;;5.43;2.95;;;11.30;78.90;;;;;;6199991;23;20009;-79
2024/01/13 03:43:17;;;;;;;4.78;2.78;;;11.20;78.80;;;;;;6175791;23;20004;-79
2024/01/13 03:45:44;;;;;;;5.35;3.10;;;11.30;78.90;;;;;;6176409;23;20005;-79
2024/01/13 03:48:10;;;;;;;5.20;2.90;;;11.30;78.90;;;;;;6173441;23;20009;-80
2024/01/13 03:54:06;;;;;;;5.07;2.83;;;11.20;78.90;;;;;;6203238;23;20020;-79
2024/01/13 03:57:22;;;;;;;5.15;2.85;;;11.20;78.90;;;;;;6199380;23;20025;-79
2024/01/13 03:59:55;;;;;;;5.32;3.08;;;11.20;78.80;;;;;;6142274;23;20028;-79
2024/01/13 04:06:28;;;;;;;5.30;2.90;;;11.20;79.00;;;;;;6198406;23;20108;-80
2024/01/13 04:09:14;;;;;;;4.68;2.58;;;11.30;78.90;;;;;;6200636;23;20005;-79
2024/01/13 04:12:05;;;;;;;4.72;2.60;;;11.20;78.90;;;;;;6168123;23;20009;-79
2024/01/13 04:15:07;;;;;;;4.75;2.50;;;11.30;78.90;;;;;;6167214;23;20538;-79
2024/01/13 04:17:43;;;;;;;4.22;2.45;;;11.30;79.00;;;;;;6118705;23;20044;-80
2024/01/13 04:20:31;;;;;;;5.13;2.80;;;11.30;78.90;;;;;;6170863;23;20002;-79
2024/01/13 04:27:26;;;;;;;4.80;2.65;;;11.30;79.00;;;;;;6169714;23;20008;-79
2024/01/13 04:33:25;;;;;;;5.00;2.90;;;11.10;78.90;;;;;;6081874;23;20038;-79
2024/01/13 04:36:21;;;;;;;5.05;2.72;;;11.20;79.00;;;;;;6077252;23;20061;-79
2024/01/13 04:39:30;;;;;;;4.88;2.85;;;11.20;79.10;;;;;;6080701;23;20003;-80
2024/01/13 04:42:26;;;;;;;4.75;2.70;;;11.10;78.90;;;;;;6080756;23;20037;-79
2024/01/13 04:45:28;;;;;;;4.32;2.50;;;11.20;79.10;;;;;;6074451;23;20006;-79
2024/01/13 04:48:40;;;;;;;4.45;2.40;;;11.30;79.20;;;;;;6061209;23;20011;-79
2024/01/13 04:52:11;;;;;;;4.07;2.60;;;11.20;79.10;;;;;;6144410;23;20537;-79
2024/01/13 04:54:55;;;;;;;4.72;2.70;;;11.20;79.10;;;;;;6151298;23;20009;-79
2024/01/13 05:03:36;;;;;;;4.50;2.45;;;11.20;79.20;;;;;;6173324;23;20028;-80
2024/01/13 05:06:01;;;;;;;4.45;2.55;;;11.20;79.20;;;;;;6177423;23;20033;-79
2024/01/13 05:08:27;;;;;;;4.03;2.30;;;11.20;79.10;;;;;;6178107;23;20005;-79
2024/01/13 05:10:52;;;;;;;4.10;2.38;;;11.20;79.20;;;;;;6203014;23;20005;-79
2024/01/13 05:13:18;;;;;;;4.88;2.60;;;11.20;79.20;;;;;;6180449;23;20005;-79
2024/01/13 05:15:44;;;;;;;4.88;2.85;;;11.20;79.20;;;;;;6182325;23;20040;-79
2024/01/13 05:18:09;;;;;;;4.97;2.78;;;11.20;79.20;;;;;;6176331;23;20005;-79
2024/01/13 05:20:35;;;;;;;4.55;2.50;;;11.20;79.20;;;;;;6173834;23;20092;-79
2024/01/13 05:23:00;;;;;;;3.85;2.42;;;11.20;79.10;;;;;;6177951;23;20005;-79
2024/01/13 05:25:26;;;;;;;4.90;2.30;;;11.20;79.30;;;;;;6168996;23;20001;-78
2024/01/13 05:27:51;;;;;;;4.25;2.50;;;11.20;79.10;;;;;;6174138;23;20012;-79
2024/01/13 05:30:17;;;;;;;4.38;2.40;;;11.10;79.20;;;;;;6174045;23;20013;-80
2024/01/13 05:32:43;;;;;;;4.15;2.22;;;11.20;79.20;;;;;;6173194;23;20001;-79
2024/01/13 05:35:08;;;;;;;3.90;2.28;;;11.20;79.10;;;;;;6176328;23;20000;-79
2024/01/13 05:37:34;;;;;;;4.35;2.33;;;11.30;79.30;;;;;;6202932;23;20056;-79
2024/01/13 05:40:00;;;;;;;3.60;2.08;;;11.10;79.20;;;;;;6203711;23;20087;-79
2024/01/13 05:42:26;;;;;;;3.95;2.30;;;11.30;79.40;;;;;;6178328;23;20016;-79
2024/01/13 05:44:52;;;;;;;3.55;2.17;;;11.20;79.30;;;;;;6178934;23;20009;-78
2024/01/13 05:47:18;;;;;;;3.70;2.10;;;11.10;79.30;;;;;;6198962;23;20008;-78
2024/01/13 05:49:43;;;;;;;3.53;2.10;;;11.10;79.30;;;;;;6178328;23;20004;-80
2024/01/13 05:52:12;;;;;;;3.95;2.25;;;11.20;79.30;;;;;;6177712;23;20028;-79
2024/01/13 05:54:39;;;;;;;3.00;1.77;;;11.20;79.30;;;;;;6177876;23;20088;-79
2024/01/13 05:57:04;;;;;;;4.18;2.20;;;11.20;79.30;;;;;;6177335;23;20001;-79
2024/01/13 05:59:30;;;;;;;3.60;2.20;;;11.10;79.30;;;;;;6202946;23;20024;-79
2024/01/13 06:01:56;;;;;;;3.65;2.10;;;11.10;79.30;;;;;;6175846;23;20012;-79
2024/01/13 06:04:22;;;;;;;4.20;2.13;;;11.20;79.50;;;;;;6179854;23;20012;-79
2024/01/13 06:06:47;;;;;;;3.35;2.00;;;11.10;79.30;;;;;;6178021;23;20120;-79
2024/01/13 06:09:13;;;;;;;4.03;2.30;;;11.10;79.40;;;;;;6180486;23;20017;-79
2024/01/13 06:11:40;;;;;;;3.80;2.25;;;11.10;79.30;;;;;;6177715;23;20029;-79
2024/01/13 06:14:06;;;;;;;3.45;1.95;;;11.20;79.40;;;;;;6180004;23;20479;-79
2024/01/13 06:16:31;;;;;;;3.22;1.90;;;11.10;79.30;;;;;;6176784;23;19998;-80
2024/01/13 06:18:57;;;;;;;3.60;2.00;;;11.10;79.30;;;;;;6176790;23;20001;-79
2024/01/13 06:21:23;;;;;;;3.47;2.00;;;11.10;79.40;;;;;;6173676;23;20017;-79
2024/01/13 06:23:49;;;;;;;3.97;2.25;;;11.10;79.40;;;;;;6172336;23;20040;-79
2024/01/13 06:26:14;;;;;;;4.05;2.10;;;11.10;79.50;;;;;;6172268;23;20372;-79
2024/01/13 06:28:40;;;;;;;3.53;2.03;;;11.10;79.70;;;;;;6175317;23;20001;-79
2024/01/13 06:31:06;;;;;;;3.85;2.05;;;11.10;79.50;;;;;;6174773;23;20088;-79
2024/01/13 06:33:31;;;;;;;4.43;2.40;;;11.20;79.50;;;;;;6175724;23;20024;-79
2024/01/13 06:35:58;;;;;;;3.72;2.00;;;11.20;79.60;;;;;;6175508;23;20088;-79
2024/01/13 06:38:23;;;;;;;3.50;2.05;;;11.10;79.50;;;;;;6172032;23;20061;-79
2024/01/13 06:40:49;;;;;;;4.35;2.13;;;11.10;79.50;;;;;;6172778;23;20008;-79
2024/01/13 06:43:15;;;;;;;3.67;2.10;;;11.10;79.50;;;;;;6176808;23;20036;-80
2024/01/13 06:45:40;;;;;;;3.10;1.83;;;11.10;79.50;;;;;;6178214;23;20011;-79
2024/01/13 06:48:06;;;;;;;4.10;2.13;;;11.20;79.60;;;;;;6176414;23;20011;-79
2024/01/13 06:50:32;;;;;;;4.07;2.20;;;11.10;79.40;;;;;;6176882;23;20004;-79
2024/01/13 06:52:57;;;;;;;2.50;1.63;;;11.10;79.50;;;;;;6179590;23;20012;-79
2024/01/13 06:55:24;;;;;;;3.88;2.10;;;11.10;79.60;;;;;;6178349;23;20005;-79
2024/01/13 06:57:51;;;;;;;2.90;1.85;;;11.10;79.60;;;;;;6178624;23;20009;-79
2024/01/13 07:00:18;;;;;;;3.50;1.92;;;11.10;79.50;;;;;;6177252;23;20069;-79
2024/01/13 07:05:22;;;;;;;3.28;1.88;;;11.10;79.60;;;;;;6198275;23;20025;-80
2024/01/13 07:07:48;;;;;;;3.78;1.92;;;11.10;79.60;;;;;;6176854;23;20060;-80
2024/01/13 07:10:13;;;;;;;3.17;1.80;;;11.10;80.10;;;;;;6178029;23;20009;-80
2024/01/13 08:22:25;;;;;;;3.63;1.95;;;11.00;79.70;;;;;;6165927;23;20028;-79
2024/01/13 08:49:07;;;;;;;5.32;2.58;;;11.00;79.30;;;;;;6218386;23;20020;-79
2024/01/13 09:03:07;;;;;;;4.82;2.20;;;11.00;79.60;;;;;;6155537;23;20013;-78
2024/01/13 09:05:33;;;;;;;4.47;2.25;;;11.00;79.50;;;;;;6156846;23;20002;-79
2024/01/13 09:08:00;;;;;;;6.40;2.70;;;11.00;79.60;;;;;;6137431;23;20005;-80
2024/01/13 09:10:26;;;;;;;5.00;2.47;;;11.00;79.70;;;;;;6144203;23;20018;-79
2024/01/13 09:12:53;;;;;;;4.00;2.33;;;11.00;79.70;;;;;;6133721;23;20459;-78
2024/01/13 09:15:18;;;;;;;5.18;2.42;;;11.00;79.70;;;;;;6156621;23;20002;-79
2024/01/13 09:17:44;;;;;;;4.82;2.33;;;11.00;79.70;;;;;;6130305;23;20015;-79
2024/01/13 09:20:11;;;;;;;5.38;2.67;;;11.00;79.70;;;;;;6129812;23;20059;-78
2024/01/13 09:22:37;;;;;;;6.03;2.33;;;11.20;79.80;;;;;;6132578;23;20006;-78
2024/01/13 09:25:03;;;;;;;4.35;2.40;;;11.00;79.70;;;;;;6129639;23;20440;-78
2024/01/13 09:27:29;;;;;;;5.22;2.40;;;10.90;79.70;;;;;;6129144;23;20037;-78
2024/01/13 09:29:54;;;;;;;4.43;2.28;;;10.90;79.80;;;;;;6155604;23;20025;-78
2024/01/13 09:32:20;;;;;;;4.90;2.20;;;11.00;79.80;;;;;;6129252;23;20004;-78
2024/01/13 09:34:45;;;;;;;5.25;2.58;;;11.00;79.80;;;;;;6130434;23;20507;-78
2024/01/13 09:37:11;;;;;;;4.70;2.38;;;10.90;79.70;;;;;;6131660;23;20437;-79
2024/01/13 09:39:36;;;;;;;4.25;2.40;;;11.10;79.80;;;;;;6132776;23;20005;-79
2024/01/13 09:42:02;;;;;;;4.32;2.30;;;11.00;79.80;;;;;;6131388;23;20012;-79
2024/01/13 09:44:32;;;;;;;5.03;2.33;;;10.90;79.80;;;;;;6130882;23;20140;-78
2024/01/13 09:46:59;;;;;;;4.65;2.40;;;10.90;79.80;;;;;;6155412;23;20005;-78
2024/01/13 09:49:29;;;;;;;4.18;2.30;;;10.90;79.80;;;;;;6128671;23;20009;-78
2024/01/13 09:51:55;;;;;;;3.97;2.28;;;10.90;79.90;;;;;;6128882;23;20036;-78
2024/01/13 09:54:30;;;;;;;4.35;2.45;;;10.90;79.90;;;;;;6131024;23;20410;-79
2024/01/13 09:56:57;;;;;;;4.32;2.40;;;11.00;79.90;;;;;;6155826;23;19997;-79
2024/01/13 09:59:25;;;;;;;4.38;2.47;;;11.00;79.80;;;;;;6130017;23;20001;-77
2024/01/13 10:01:53;;;;;;;4.85;2.20;;;11.00;79.90;;;;;;6124213;23;20017;-79
2024/01/13 10:04:18;;;;;;;5.28;2.53;;;10.90;79.80;;;;;;6131833;23;20006;-79
2024/01/13 10:06:47;;;;;;;3.80;2.00;;;10.90;79.80;;;;;;6130174;23;20058;-79
2024/01/13 10:09:13;;;;;;;5.80;2.60;;;10.90;79.80;;;;;;6104093;23;20005;-78
2024/01/13 10:11:39;;;;;;;4.75;2.45;;;11.00;79.90;;;;;;6127493;23;20048;-80
2024/01/13 10:14:06;;;;;;;4.65;2.42;;;10.80;79.80;;;;;;6126764;23;20002;-79
2024/01/13 10:16:33;;;;;;;4.05;2.30;;;10.90;79.90;;;;;;6125205;23;20013;-78
2024/01/13 10:19:04;;;;;;;5.38;2.80;;;10.90;79.80;;;;;;6101142;23;20002;-77
2024/01/13 10:21:30;;;;;;;4.75;2.60;;;10.90;79.80;;;;;;6107979;23;20002;-78
2024/01/13 10:23:57;;;;;;;4.32;2.22;;;10.90;79.80;;;;;;6131421;23;20020;-80
2024/01/13 10:26:24;;;;;;;5.18;2.42;;;11.00;79.80;;;;;;6112009;23;20388;-78
2024/01/13 10:28:50;;;;;;;5.20;2.78;;;10.90;79.70;;;;;;6110636;23;20009;-79
2024/01/13 10:31:20;;;;;;;4.53;2.50;;;11.00;79.80;;;;;;6133211;23;20361;-80
2024/01/13 10:33:49;;;;;;;5.13;2.60;;;10.90;79.80;;;;;;6113006;23;20002;-79
2024/01/13 10:36:24;;;;;;;5.97;2.42;;;10.90;79.90;;;;;;6106871;23;20002;-80
2024/01/13 10:38:51;;;;;;;5.40;2.53;;;11.10;79.90;;;;;;6105973;23;20006;-79
2024/01/13 10:41:21;;;;;;;4.82;2.60;;;10.90;80.00;;;;;;6106186;23;20035;-80
2024/01/13 10:43:54;;;;;;;5.53;2.88;;;10.90;79.90;;;;;;6106190;23;20010;-79
2024/01/13 10:46:23;;;;;;;4.10;2.38;;;10.90;80.00;;;;;;6103193;23;20017;-79
2024/01/13 10:48:51;;;;;;;5.07;2.60;;;10.80;79.80;;;;;;6081196;23;20345;-79
2024/01/13 10:51:33;;;;;;;4.40;2.40;;;11.00;80.00;;;;;;6132302;23;20002;-79
2024/01/13 10:54:01;;;;;;;4.55;2.40;;;10.90;80.00;;;;;;6137163;23;20009;-80
2024/01/13 10:56:29;;;;;;;4.82;2.50;;;10.80;79.80;;;;;;6126722;23;20009;-79
2024/01/13 10:58:57;;;;;;;5.10;2.50;;;10.90;79.80;;;;;;6100834;23;20002;-80
2024/01/13 11:01:23;;;;;;;4.78;2.47;;;10.90;79.90;;;;;;6156603;23;20085;-78
2024/01/13 11:03:51;;;;;;;4.35;2.33;;;10.80;79.90;;;;;;6164731;23;20009;-79
2024/01/13 11:06:17;;;;;;;4.45;2.40;;;10.90;80.00;;;;;;6137864;23;20088;-80
2024/01/13 11:08:44;;;;;;;4.88;2.60;;;10.90;79.80;;;;;;6136721;23;20005;-79
2024/01/13 11:11:13;;;;;;;5.80;2.50;;;10.90;79.90;;;;;;6134346;23;20013;-80
2024/01/13 11:13:49;;;;;;;4.20;2.17;;;10.90;79.90;;;;;;6131526;23;20002;-79
2024/01/13 11:16:21;;;;;;;4.63;2.20;;;10.90;79.90;;;;;;6107907;23;20010;-79
2024/01/13 11:18:51;;;;;;;5.60;2.85;;;10.90;79.90;;;;;;6131889;23;20432;-79
2024/01/13 11:21:17;;;;;;;5.20;2.40;;;10.90;80.00;;;;;;6131943;23;20467;-78
2024/01/13 11:23:58;;;;;;;4.35;2.38;;;10.90;80.00;;;;;;6160746;23;20128;-79
2024/01/13 11:26:38;;;;;;;5.25;2.50;;;10.90;80.00;;;;;;6131400;23;20502;-80
2024/01/13 11:29:21;;;;;;;4.40;2.40;;;10.90;80.00;;;;;;6159825;23;20013;-79
2024/01/13 11:32:00;;;;;;;14.07;3.20;;;11.00;80.10;;;;;;6131504;23;20012;-80
2024/01/13 11:34:27;;;;;;;12.40;3.63;;;10.70;79.40;;;;;;6111435;23;20043;-79
2024/01/13 11:36:58;;;;;;;12.38;3.13;;;10.90;79.40;;;;;;6132278;23;20038;-79
2024/01/13 11:39:24;;;;;;;9.55;3.70;;;12.20;80.00;;;;;;6139134;23;20001;-79
2024/01/13 11:41:52;;;;;;;9.43;3.10;;;10.70;79.20;;;;;;6134023;23;20001;-78
2024/01/13 11:44:41;;;;;;;9.32;2.97;;;10.90;79.30;;;;;;6158016;23;20026;-78
2024/01/13 11:47:09;;;;;;;6.20;2.70;;;10.90;79.40;;;;;;6130490;23;20399;-78
2024/01/13 11:49:39;;;;;;;10.05;2.90;;;10.70;79.30;;;;;;6106380;23;20010;-78
2024/01/13 11:52:06;;;;;;;8.40;3.20;;;10.90;79.50;;;;;;6130843;23;20025;-79
2024/01/13 11:54:33;;;;;;;6.38;2.90;;;10.90;79.70;;;;;;6134182;23;20010;-79
2024/01/13 11:57:01;;;;;;;5.20;2.83;;;10.90;79.50;;;;;;6131493;23;20340;-78
2024/01/13 11:59:27;;;;;;;4.80;2.47;;;10.90;79.60;;;;;;6131683;23;20006;-80
2024/01/13 12:01:54;;;;;;;7.90;3.10;;;10.90;79.60;;;;;;6133467;23;20037;-79
2024/01/13 12:04:25;;;;;;;6.40;3.03;;;10.90;79.60;;;;;;6141073;23;20040;-79
2024/01/13 12:06:53;;;;;;;7.75;2.80;;;10.90;79.60;;;;;;6157684;23;20002;-80
2024/01/13 12:09:24;;;;;;;6.38;2.88;;;10.90;79.70;;;;;;6159875;23;20471;-79
2024/01/13 12:11:54;;;;;;;5.85;3.05;;;10.90;79.60;;;;;;6131193;23;20025;-79
2024/01/13 12:14:30;;;;;;;4.82;2.60;;;10.90;79.70;;;;;;6131612;23;20002;-80
2024/01/13 12:16:57;;;;;;;6.32;3.35;;;10.90;79.70;;;;;;6134787;23;20002;-79
2024/01/13 12:19:25;;;;;;;4.93;2.65;;;10.90;79.70;;;;;;6134864;23;20006;-79
2024/01/13 12:21:51;;;;;;;5.05;2.50;;;10.90;79.60;;;;;;6133616;23;20005;-79
2024/01/13 12:24:24;;;;;;;5.90;2.85;;;10.90;79.70;;;;;;6132673;23;20074;-78
2024/01/13 12:26:49;;;;;;;9.13;3.05;;;11.00;79.70;;;;;;6131133;23;20090;-79
2024/01/13 12:29:16;;;;;;;7.20;2.80;;;10.90;79.60;;;;;;6140532;23;20428;-78
2024/01/13 12:32:04;;;;;;;14.77;3.20;;;10.90;79.60;;;;;;6148879;23;20009;-80
2024/01/13 12:34:35;;;;;;;9.07;3.30;;;10.90;79.60;;;;;;6155656;23;20032;-83
2024/01/13 12:37:03;;;;;;;13.38;3.38;;;10.90;79.50;;;;;;6159135;23;20009;-81
2024/01/13 12:39:35;;;;;;;9.65;3.28;;;10.80;79.40;;;;;;6160230;23;20041;-81
2024/01/13 12:44:42;;;;;;;14.57;3.33;;;10.80;79.50;;;;;;6194636;23;19916;-79
2024/01/13 12:47:12;;;;;;;10.48;3.30;;;10.80;79.60;;;;;;6210035;23;20004;-81
2024/01/13 12:49:40;;;;;;;11.30;3.50;;;11.00;79.80;;;;;;6186033;23;20071;-81
2024/01/13 12:52:11;;;;;;;9.77;3.22;;;10.80;79.80;;;;;;6135031;23;20016;-81
2024/01/13 12:54:50;;;;;;;8.10;3.00;;;10.90;79.80;;;;;;6211712;23;20016;-80
2024/01/13 12:57:19;;;;;;;14.13;3.22;;;10.80;79.60;;;;;;6185019;23;19997;-80
2024/01/13 12:59:45;;;;;;;8.25;3.10;;;10.70;79.50;;;;;;6187222;23;19993;-80
2024/01/13 13:02:19;;;;;;;10.75;3.08;;;10.80;79.60;;;;;;6210743;23;20009;-82
2024/01/13 13:05:07;;;;;;;11.88;2.92;;;10.80;79.50;;;;;;6210822;23;20012;-80
2024/01/13 13:07:46;;;;;;;8.90;2.67;;;10.80;79.70;;;;;;6211953;23;19996;-81
2024/01/13 13:10:13;;;;;;;11.02;3.20;;;10.90;79.70;;;;;;6186202;23;20017;-81
2024/01/13 13:12:43;;;;;;;9.40;3.00;;;11.50;80.00;;;;;;6186453;23;19985;-80
2024/01/13 13:15:12;;;;;;;8.13;2.95;;;10.80;79.60;;;;;;6162110;23;20009;-80
2024/01/13 13:18:02;;;;;;;9.27;3.17;;;10.80;79.80;;;;;;6186334;23;20005;-80
2024/01/13 13:20:32;;;;;;;7.95;3.10;;;10.70;79.70;;;;;;6186019;23;20055;-82
2024/01/13 13:23:08;;;;;;;8.90;3.63;;;10.80;79.80;;;;;;6205029;23;19999;-80
2024/01/13 13:25:38;;;;;;;9.02;3.35;;;10.70;79.70;;;;;;6212186;23;19996;-81
2024/01/13 13:28:06;;;;;;;9.70;2.92;;;10.70;79.70;;;;;;6160879;23;19999;-81
2024/01/13 13:30:34;;;;;;;7.70;3.10;;;10.70;79.70;;;;;;6186617;23;19997;-80
2024/01/13 13:35:41;;;;;;;24.55;4.97;;;10.80;79.70;;;;;;6194271;23;20025;-79
2024/01/13 13:38:08;;;;;;;18.70;4.75;;;10.80;79.60;;;;;;6185491;23;19996;-81
2024/01/13 13:40:53;;;;;;;16.60;4.10;;;10.80;79.00;;;;;;6210706;23;20018;-80
2024/01/13 13:43:19;;;;;;;28.30;4.82;;;10.80;79.10;;;;;;6184399;23;19997;-79
2024/01/13 13:45:46;;;;;;;18.55;4.90;;;10.80;78.80;;;;;;6184167;23;20008;-77
2024/01/13 13:53:26;;;;;;;16.35;3.70;;;10.90;79.20;;;;;;6188116;23;20257;-79
2024/01/13 13:55:51;;;;;;;14.70;4.03;;;10.90;79.30;;;;;;6185865;23;19989;-79
2024/01/13 13:58:20;;;;;;;17.98;4.40;;;11.20;79.50;;;;;;6212810;23;19986;-78
2024/01/13 14:09:05;;;;;;;13.23;4.00;;;11.20;80.00;;;;;;6145126;23;20020;-79
2024/01/13 14:19:25;;;;;;;15.35;3.70;;;11.30;80.60;;;;;;6168333;23;20020;-80
2024/01/13 14:21:50;;;;;;;8.85;3.80;;;11.40;81.00;;;;;;6163752;23;20033;-80
2024/01/13 15:04:58;;;;;;;11.32;3.60;;;12.60;86.30;;;;;;6143713;23;20025;-79
2024/01/13 17:30:08;;;;;;;17.70;8.05;;;11.50;81.90;;;;;;6147062;23;20021;-80
2024/01/13 17:32:49;;;;;;;16.38;7.65;;;11.40;81.90;;;;;;6182612;23;20344;-79
2024/01/13 17:35:21;;;;;;;19.55;8.25;;;11.70;82.10;;;;;;6185300;23;20021;-78
2024/01/13 17:38:06;;;;;;;25.40;8.93;;;11.50;82.10;;;;;;6207571;23;19990;-79
2024/01/13 17:40:35;;;;;;;15.38;7.95;;;11.50;80.70;;;;;;6186362;23;20482;-79
2024/01/13 17:43:04;;;;;;;18.33;8.07;;;11.30;81.00;;;;;;6186918;23;20064;-80
2024/01/13 17:56:35;;;;;;;13.50;7.88;;;11.40;81.60;;;;;;6174842;23;20025;-80
2024/01/13 17:59:02;;;;;;;;;;;11.50;81.80;;;;;;6187849;23;20029;-80
2024/01/13 18:01:31;;;;;;;16.08;7.30;;;11.40;81.70;;;;;;6186315;23;19888;-79
2024/01/13 18:09:09;;;;;;;15.05;7.18;;;11.30;81.80;;;;;;6199243;23;20040;-78
2024/01/13 18:14:30;;;;;;;15.63;8.20;;;11.30;81.80;;;;;;6172700;23;20029;-79
2024/01/13 18:16:55;;;;;;;15.95;8.23;;;11.30;81.70;;;;;;6167936;23;20032;-78
2024/01/13 18:19:21;;;;;;;18.90;8.27;;;11.30;81.70;;;;;;6199069;23;20028;-79
2024/01/13 18:21:46;;;;;;;21.60;8.35;;;11.30;81.90;;;;;;6194792;23;20365;-79
2024/01/13 18:24:12;;;;;;;20.20;8.57;;;11.30;81.90;;;;;;6176330;23;20375;-79
2024/01/13 18:26:38;;;;;;;17.52;9.25;;;11.30;81.90;;;;;;6167044;23;20023;-79
2024/01/13 18:29:04;;;;;;;35.75;10.18;;;11.60;82.10;;;;;;6169427;23;20054;-79
2024/01/13 18:31:29;;;;;;;19.35;8.80;;;11.30;81.70;;;;;;6175149;23;20061;-78
2024/01/13 18:33:56;;;;;;;25.50;10.38;;;12.40;82.40;;;;;;6210083;23;20028;-79
2024/01/13 18:36:26;;;;;;;24.27;10.32;;;11.30;81.70;;;;;;6184512;23;19989;-80
2024/01/13 18:38:53;;;;;;;25.25;10.02;;;11.20;81.70;;;;;;6183420;23;20009;-79
2024/01/13 18:41:21;;;;;;;23.75;9.60;;;11.20;81.60;;;;;;6183991;23;20016;-79
2024/01/13 18:43:48;;;;;;;20.80;9.93;;;11.20;81.70;;;;;;6159248;23;20073;-79
2024/01/13 18:46:14;;;;;;;22.10;9.43;;;11.20;81.70;;;;;;6182952;23;19993;-79
2024/01/13 18:48:42;;;;;;;24.25;10.18;;;11.20;81.70;;;;;;6181676;23;20032;-79
2024/01/13 18:51:10;;;;;;;20.75;9.45;;;11.90;82.10;;;;;;6157726;23;19997;-79
2024/01/13 18:53:38;;;;;;;21.23;8.95;;;11.10;81.70;;;;;;6160302;23;20009;-79
2024/01/13 18:56:04;;;;;;;18.83;9.82;;;11.00;82.20;;;;;;6171340;23;20005;-79
2024/01/13 18:58:30;;;;;;;18.38;9.75;;;11.30;81.90;;;;;;6209358;23;20005;-80